Time,TemperatureF,DewpointF,PressureIn,WindDirection,WindDirectionDegrees,WindSpeedMPH,WindSpeedGustMPH,Humidity,HourlyPrecipIn,Conditions,Clouds,dailyrainin,SoftwareType,DateUTC
2013-04-07 00:29:00,43.7,26.8,30.11,WSW,247,3.7,-999.0,51,-99.99,,,0.00,Acu-Link.com,2013-04-07 04:29:00,
2013-04-07 00:44:00,44.1,27.1,30.11,SW,225,4.2,-999.0,51,-99.99,,,0.00,Acu-Link.com,2013-04-07 04:44:00,
2013-04-07 01:00:00,43.9,27.4,30.11,SW,225,3.7,-999.0,52,-99.99,,,0.00,Acu-Link.com,2013-04-07 05:00:00,
2013-04-07 01:15:00,43.5,28.0,30.10,SSE,157,5.8,-999.0,54,-99.99,,,0.00,Acu-Link.com,2013-04-07 05:15:00,
2013-04-07 01:30:00,43.3,27.8,30.11,SSW,202,3.7,-999.0,54,-99.99,,,0.00,Acu-Link.com,2013-04-07 05:30:00,
2013-04-07 01:45:00,44.1,28.5,30.10,SSW,202,7.3,-999.0,54,-99.99,,,0.00,Acu-Link.com,2013-04-07 05:45:00,
2013-04-07 02:00:00,43.9,28.8,30.10,SW,225,4.7,-999.0,55,-99.99,,,0.00,Acu-Link.com,2013-04-07 06:00:00,
2013-04-07 02:15:00,43.3,28.7,30.10,SW,225,4.7,-999.0,56,-99.99,,,0.00,Acu-Link.com,2013-04-07 06:15:00,
2013-04-07 02:30:00,42.4,28.7,30.10,SSW,202,2.7,-999.0,58,-99.99,,,0.00,Acu-Link.com,2013-04-07 06:30:00,
2013-04-07 02:46:00,41.9,28.2,30.09,SW,225,4.7,-999.0,58,-99.99,,,0.00,Acu-Link.com,2013-04-07 06:46:00,
2013-04-07 03:01:00,40.8,27.6,30.09,SW,225,3.7,-999.0,59,-99.99,,,0.00,Acu-Link.com,2013-04-07 07:01:00,
2013-04-07 04:02:00,38.1,28.1,30.08,SSW,202,1.7,-999.0,67,-99.99,,,0.00,Acu-Link.com,2013-04-07 08:02:00,
2013-04-07 04:17:00,37.8,27.8,30.08,SSW,202,2.2,-999.0,67,-99.99,,,0.00,Acu-Link.com,2013-04-07 08:17:00,
2013-04-07 04:32:00,37.2,28.0,30.08,SSW,202,2.7,-999.0,69,-99.99,,,0.00,Acu-Link.com,2013-04-07 08:32:00,
2013-04-07 04:47:00,36.9,28.4,30.09,WSW,247,4.7,-999.0,71,-99.99,,,0.00,Acu-Link.com,2013-04-07 08:47:00,
2013-04-07 05:03:00,37.2,29.0,30.08,WSW,247,5.3,-999.0,72,-99.99,,,0.00,Acu-Link.com,2013-04-07 09:03:00,
2013-04-07 05:18:00,36.3,28.8,30.08,WSW,247,4.7,-999.0,74,-99.99,,,0.00,Acu-Link.com,2013-04-07 09:18:00,
2013-04-07 05:33:00,36.7,29.9,30.08,SW,225,3.7,-999.0,76,-99.99,,,0.00,Acu-Link.com,2013-04-07 09:33:00,
2013-04-07 05:48:00,35.8,29.6,30.08,SW,225,3.7,-999.0,78,-99.99,,,0.00,Acu-Link.com,2013-04-07 09:48:00,
2013-04-07 06:03:00,36.7,30.5,30.08,WSW,247,5.3,-999.0,78,-99.99,,,0.00,Acu-Link.com,2013-04-07 10:03:00,
2013-04-07 06:34:00,36.3,30.4,30.08,WSW,247,5.8,-999.0,79,-99.99,,,0.00,Acu-Link.com,2013-04-07 10:34:00,
2013-04-07 07:04:00,37.0,31.4,30.09,WSW,247,5.8,-999.0,80,-99.99,,,0.00,Acu-Link.com,2013-04-07 11:04:00,
2013-04-07 07:35:00,38.3,32.1,30.09,WSW,247,7.8,-999.0,78,-99.99,,,0.00,Acu-Link.com,2013-04-07 11:35:00,
2013-04-07 07:50:00,39.9,32.6,30.09,SW,225,6.8,-999.0,75,-99.99,,,0.00,Acu-Link.com,2013-04-07 11:50:00,
2013-04-07 08:05:00,41.4,33.4,30.09,WSW,247,5.8,-999.0,73,-99.99,,,0.00,Acu-Link.com,2013-04-07 12:05:00,
2013-04-07 08:35:00,44.8,35.3,30.09,SW,225,6.3,-999.0,69,-99.99,,,0.00,Acu-Link.com,2013-04-07 12:35:00,
2013-04-07 08:50:00,44.8,35.3,30.09,West,270,6.3,-999.0,69,-99.99,,,0.00,Acu-Link.com,2013-04-07 12:50:00,
2013-04-07 09:05:00,45.7,35.8,30.09,WSW,247,5.8,-999.0,68,-99.99,,,0.00,Acu-Link.com,2013-04-07 13:05:00,
2013-04-07 09:44:00,48.0,36.4,30.08,WSW,247,8.3,-999.0,64,-99.99,,,0.00,Acu-Link.com,2013-04-07 13:44:00,
2013-04-07 09:59:00,50.5,37.6,30.08,SW,225,5.3,-999.0,61,-99.99,,,0.00,Acu-Link.com,2013-04-07 13:59:00,
2013-04-07 10:14:00,52.5,38.2,30.07,WSW,247,6.8,-999.0,58,-99.99,,,0.00,Acu-Link.com,2013-04-07 14:14:00,
2013-04-07 10:30:00,54.5,38.7,30.08,West,270,6.8,-999.0,55,-99.99,,,0.00,Acu-Link.com,2013-04-07 14:30:00,
2013-04-07 10:45:00,55.6,38.7,30.07,SW,225,5.8,-999.0,53,-99.99,,,0.00,Acu-Link.com,2013-04-07 14:45:00,
2013-04-07 11:00:00,57.6,40.1,30.07,West,270,12.5,-999.0,52,-99.99,,,0.00,Acu-Link.com,2013-04-07 15:00:00,
2013-04-07 11:15:00,57.2,39.7,30.07,SW,225,3.7,-999.0,52,-99.99,,,0.00,Acu-Link.com,2013-04-07 15:15:00,
2013-04-07 11:30:00,56.5,39.6,30.05,NE,45,3.2,-999.0,53,-99.99,,,0.00,Acu-Link.com,2013-04-07 15:30:00,
2013-04-07 11:45:00,54.7,38.9,30.05,SSW,202,2.2,-999.0,55,-99.99,,,0.00,Acu-Link.com,2013-04-07 15:45:00,
2013-04-07 12:16:00,54.7,39.3,30.05,SSE,157,6.8,-999.0,56,-99.99,,,0.00,Acu-Link.com,2013-04-07 16:16:00,
2013-04-07 12:46:00,58.3,40.8,29.99,SE,135,8.9,-999.0,52,-99.99,,,0.00,Acu-Link.com,2013-04-07 16:46:00,
2013-04-07 13:02:00,62.2,42.3,29.98,West,270,8.3,-999.0,48,-99.99,,,0.00,Acu-Link.com,2013-04-07 17:02:00,
2013-04-07 13:32:00,64.0,41.6,29.95,WSW,247,10.4,-999.0,44,-99.99,,,0.00,Acu-Link.com,2013-04-07 17:32:00,
2013-04-07 14:03:00,66.0,42.9,29.94,WSW,247,7.3,-999.0,43,-99.99,,,0.00,Acu-Link.com,2013-04-07 18:03:00,
2013-04-07 14:18:00,64.4,41.4,29.93,WSW,247,6.3,-999.0,43,-99.99,,,0.00,Acu-Link.com,2013-04-07 18:18:00,
2013-04-07 14:33:00,66.4,43.2,29.93,SW,225,10.9,-999.0,43,-99.99,,,0.00,Acu-Link.com,2013-04-07 18:33:00,
2013-04-07 14:48:00,65.5,42.4,29.94,WSW,247,7.8,-999.0,43,-99.99,,,0.00,Acu-Link.com,2013-04-07 18:48:00,
2013-04-07 15:03:00,63.9,41.6,29.95,SW,225,8.3,-999.0,44,-99.99,,,0.00,Acu-Link.com,2013-04-07 19:03:00,
2013-04-07 15:18:00,65.5,42.4,29.94,West,270,15.5,-999.0,43,-99.99,,,0.00,Acu-Link.com,2013-04-07 19:18:00,
2013-04-07 15:33:00,63.5,42.3,29.94,SSW,202,5.3,-999.0,46,-99.99,,,0.00,Acu-Link.com,2013-04-07 19:33:00,
2013-04-07 15:49:00,63.5,42.3,29.95,West,270,8.3,-999.0,46,-99.99,,,0.00,Acu-Link.com,2013-04-07 19:49:00,
2013-04-07 16:34:00,63.3,42.2,29.95,WSW,247,8.3,-999.0,46,-99.99,,,0.00,Acu-Link.com,2013-04-07 20:34:00,
2013-04-07 16:50:00,62.4,42.4,29.95,SSW,202,4.2,-999.0,48,-99.99,,,0.00,Acu-Link.com,2013-04-07 20:50:00,
2013-04-07 17:05:00,62.4,43.0,29.95,WSW,247,8.3,-999.0,49,-99.99,,,0.00,Acu-Link.com,2013-04-07 21:05:00,
2013-04-07 17:20:00,62.6,43.2,29.95,SSW,202,6.3,-999.0,49,-99.99,,,0.00,Acu-Link.com,2013-04-07 21:20:00,
2013-04-07 17:35:00,64.6,43.3,29.95,SW,225,4.7,-999.0,46,-99.99,,,0.00,Acu-Link.com,2013-04-07 21:35:00,
2013-04-07 17:50:00,65.5,43.6,29.95,WSW,247,8.3,-999.0,45,-99.99,,,0.00,Acu-Link.com,2013-04-07 21:50:00,
2013-04-07 18:05:00,64.0,43.4,29.96,SW,225,5.8,-999.0,47,-99.99,,,0.00,Acu-Link.com,2013-04-07 22:05:00,
2013-04-07 18:20:00,63.9,43.8,29.96,WSW,247,7.8,-999.0,48,-99.99,,,0.00,Acu-Link.com,2013-04-07 22:20:00,
2013-04-07 18:36:00,62.1,43.2,29.96,WSW,247,10.9,-999.0,50,-99.99,,,0.00,Acu-Link.com,2013-04-07 22:36:00,
2013-04-07 18:51:00,61.0,43.2,29.96,WSW,247,6.3,-999.0,52,-99.99,,,0.00,Acu-Link.com,2013-04-07 22:51:00,
2013-04-07 19:37:00,57.6,42.9,29.97,SW,225,5.3,-999.0,58,-99.99,,,0.00,Acu-Link.com,2013-04-07 23:37:00,
2013-04-07 19:52:00,56.7,43.0,29.98,SW,225,4.7,-999.0,60,-99.99,,,0.00,Acu-Link.com,2013-04-07 23:52:00,
2013-04-07 20:07:00,55.6,42.8,29.98,SW,225,4.7,-999.0,62,-99.99,,,0.00,Acu-Link.com,2013-04-08 00:07:00,
2013-04-07 20:22:00,55.4,42.6,29.98,SSW,202,4.2,-999.0,62,-99.99,,,0.00,Acu-Link.com,2013-04-08 00:22:00,
2013-04-07 20:37:00,55.2,42.8,30.00,SW,225,3.7,-999.0,63,-99.99,,,0.00,Acu-Link.com,2013-04-08 00:37:00,
2013-04-07 21:07:00,53.2,42.5,30.00,SW,225,4.7,-999.0,67,-99.99,,,0.00,Acu-Link.com,2013-04-08 01:07:00,
2013-04-07 21:22:00,53.1,42.8,30.00,SW,225,4.2,-999.0,68,-99.99,,,0.00,Acu-Link.com,2013-04-08 01:22:00,
2013-04-07 21:37:00,52.7,42.4,30.00,WSW,247,4.2,-999.0,68,-99.99,,,0.00,Acu-Link.com,2013-04-08 01:37:00,
2013-04-07 21:53:00,52.2,42.3,30.01,SW,225,5.3,-999.0,69,-99.99,,,0.00,Acu-Link.com,2013-04-08 01:53:00,
2013-04-07 22:08:00,52.7,42.4,30.01,WSW,247,4.7,-999.0,68,-99.99,,,0.00,Acu-Link.com,2013-04-08 02:08:00,
2013-04-07 22:23:00,53.1,42.8,30.01,SW,225,7.8,-999.0,68,-99.99,,,0.00,Acu-Link.com,2013-04-08 02:23:00,
2013-04-07 22:38:00,53.1,42.4,30.01,SW,225,8.3,-999.0,67,-99.99,,,0.00,Acu-Link.com,2013-04-08 02:38:00,
2013-04-07 22:53:00,52.7,42.1,30.01,WSW,247,7.8,-999.0,67,-99.99,,,0.00,Acu-Link.com,2013-04-08 02:53:00,
2013-04-07 23:08:00,52.7,42.1,30.01,WSW,247,8.3,-999.0,67,-99.99,,,0.00,Acu-Link.com,2013-04-08 03:08:00,
2013-04-07 23:23:00,52.7,42.4,30.01,WSW,247,10.9,-999.0,68,-99.99,,,0.00,Acu-Link.com,2013-04-08 03:23:00,
2013-04-07 23:38:00,53.2,42.5,30.00,WSW,247,9.9,-999.0,67,-99.99,,,0.00,Acu-Link.com,2013-04-08 03:38:00,